Flight Track Log - Related Links

Times and Time Zones

All times are in EDT time to prevent confusion due to time zone crossing. See the TAM3519 flight status page for this flight to view local times or setup timezone preferences in your user account.

Time Position Orientation Groundspeed Altitude Reporting Facility
EDT Latitude Longitude Course Direction KTS MPH feet Rate Location/Type
Tue 09:16:00 PM -17.1222 -45.8162 122° Southeast  Level Estimated
Tue 09:17:00 PM -17.1668 -45.7408 122° Southeast  Level Estimated
Tue 09:18:00 PM -17.2114 -45.6654 122° Southeast  Level Estimated
Tue 09:19:00 PM -17.2559 -45.5899 122° Southeast  Level Estimated
Tue 09:20:00 PM -17.3004 -45.5144 122° Southeast  Level Estimated
Tue 09:21:00 PM -17.3449 -45.4389 122° Southeast  Level Estimated
Tue 09:22:00 PM -17.3894 -45.3633 122° Southeast  Level Estimated
Tue 09:23:00 PM -17.4338 -45.2877 122° Southeast  Level Estimated
Tue 09:24:00 PM -17.4782 -45.2121 122° Southeast  Level Estimated
Tue 09:25:00 PM -17.5226 -45.1364 122° Southeast  Level Estimated
Tue 09:26:00 PM -17.5669 -45.0607 122° Southeast  Level Estimated
Tue 09:27:00 PM -17.6112 -44.9850 122° Southeast  Level Estimated
Tue 09:28:00 PM -17.6555 -44.9092 122° Southeast  Level Estimated
Tue 09:29:00 PM -17.6997 -44.8333 121° Southeast  Level Estimated
Tue 09:30:00 PM -17.7440 -44.7575 121° Southeast  Level Estimated
Tue 09:31:00 PM -17.7882 -44.6816 121° Southeast  Level Estimated
Tue 09:32:00 PM -17.8323 -44.6056 121° Southeast  Level Estimated
Tue 09:33:00 PM -17.8764 -44.5297 121° Southeast  Level Estimated
Tue 09:34:00 PM -17.9206 -44.4536 121° Southeast  Level Estimated
Tue 09:35:00 PM -17.9646 -44.3776 121° Southeast  Level Estimated
Tue 09:36:00 PM -18.0087 -44.3015 121° Southeast  Level Estimated
Tue 09:37:00 PM -18.0527 -44.2254 121° Southeast  Level Estimated
Tue 09:38:00 PM -18.0967 -44.1492 121° Southeast  Level Estimated
Tue 09:39:00 PM -18.1407 -44.0730 121° Southeast  Level Estimated
Tue 09:40:00 PM -18.1846 -43.9968 121° Southeast  Level Estimated
Tue 09:41:00 PM -18.2285 -43.9205 121° Southeast  Level Estimated
Tue 09:42:00 PM -18.2724 -43.8442 121° Southeast  Level Estimated
Tue 09:43:00 PM -18.3162 -43.7678 121° Southeast  Level Estimated
Tue 09:44:00 PM -18.3600 -43.6914 121° Southeast  Level Estimated
Tue 09:45:00 PM -18.4038 -43.6150 121° Southeast  Level Estimated
Tue 09:46:00 PM -18.4475 -43.5385 121° Southeast  Level Estimated
Tue 09:47:00 PM -18.4912 -43.4620 121° Southeast  Level Estimated
Tue 09:48:00 PM -18.5349 -43.3854 121° Southeast  Level Estimated
Tue 09:49:00 PM -18.5786 -43.3088 121° Southeast  Level Estimated
Tue 09:50:00 PM -18.6222 -43.2322 121° Southeast  Level Estimated
Tue 09:51:00 PM -18.6658 -43.1555 121° Southeast  Level Estimated
Tue 09:52:00 PM -18.7093 -43.0788 121° Southeast  Level Estimated
Tue 09:53:00 PM -18.7529 -43.0021 121° Southeast  Level Estimated
Tue 09:54:00 PM -18.7964 -42.9253 121° Southeast  Level Estimated
Tue 09:55:00 PM -18.8398 -42.8484 121° Southeast  Level Estimated
Tue 09:56:00 PM -18.8833 -42.7716 121° Southeast  Level Estimated
Tue 09:57:00 PM -18.9267 -42.6947 121° Southeast  Level Estimated
Tue 09:58:00 PM -18.9700 -42.6177 121° Southeast  Level Estimated
Tue 09:59:00 PM -19.0134 -42.5407 121° Southeast  Level Estimated
Tue 10:00:00 PM -19.0567 -42.4637 121° Southeast  Level Estimated
Tue 10:01:00 PM -19.1000 -42.3866 121° Southeast  Level Estimated
Tue 10:02:00 PM -19.1432 -42.3095 121° Southeast  Level Estimated
Tue 10:03:00 PM -19.1864 -42.2324 121° Southeast  Level Estimated
Tue 10:04:00 PM -19.2296 -42.1552 121° Southeast  Level Estimated
Tue 10:05:00 PM -19.2728 -42.0779 121° Southeast  Level Estimated
Tue 10:06:00 PM -19.3159 -42.0007 121° Southeast  Level Estimated
Tue 10:07:00 PM -19.3589 -41.9234 121° Southeast  Level Estimated
Tue 10:08:00 PM -19.4020 -41.8460 121° Southeast  Level Estimated
Tue 10:09:00 PM -19.4450 -41.7686 121° Southeast  Level Estimated
Tue 10:10:00 PM -19.4880 -41.6912 120° Southeast  Level Estimated
Tue 10:11:00 PM -19.5309 -41.6137 120° Southeast  Level Estimated
Tue 10:12:00 PM -19.5739 -41.5362 120° Southeast  Level Estimated
Tue 10:13:00 PM -19.6167 -41.4586 120° Southeast  Level Estimated
Tue 10:14:00 PM -19.6596 -41.3810 120° Southeast  Level Estimated
Tue 10:15:00 PM -19.7024 -41.3034 120° Southeast  Level Estimated
Tue 10:16:00 PM -19.7452 -41.2257 120° Southeast  Level Estimated
Tue 10:17:00 PM -19.7879 -41.1480 120° Southeast  Level Estimated
Tue 10:18:00 PM -19.8307 -41.0702 120° Southeast  Level Estimated
Tue 10:19:00 PM -19.8733 -40.9924 120° Southeast  Level Estimated
Tue 10:20:00 PM -19.9160 -40.9146 120° Southeast  Level Estimated
Tue 10:21:00 PM -19.9586 -40.8367 120° Southeast  Level Estimated
Tue 10:22:00 PM -20.0012 -40.7587 120° Southeast  Level Estimated
Tue 10:23:00 PM -20.0437 -40.6808 120° Southeast  Level Estimated
Tue 10:24:00 PM -20.0863 -40.6027 120° Southeast  Level Estimated
Tue 10:25:00 PM -20.1287 -40.5247 120° Southeast  Level Estimated
Tue 10:26:00 PM -20.1712 -40.4466 120° Southeast  Level Estimated
Tue 10:27:00 PM -20.2136 -40.3684 120° Southeast  Level Estimated
Tue 10:28:00 PM -20.2560 -40.2902 120° Southeast  Level Estimated
Tue 10:29:00 PM -20.2581 -40.2864 120° Southeast  Level Estimated
Tue 10:30:00 PM -20.2581 -40.2864 13° North  Level Estimated
Tue 10:31:00 PM -20.2581 -40.2864 13° North  Level Estimated
Tue 10:32:00 PM -20.2581 -40.2864 13° North  Level Estimated
Tue 10:33:00 PM -20.2581 -40.2864 13° North  Level Estimated
Tue 10:34:00 PM -20.2581 -40.2864 13° North  Level Estimated
Tue 10:35:00 PM -20.2581 -40.2864 13° North  Level Estimated
Tue 10:36:00 PM -20.2581 -40.2864 13° North  Level Estimated
Tue 10:37:00 PM -20.2581 -40.2864 13° North  Level Estimated
Tue 10:38:00 PM -20.2581 -40.2864 13° North  Level Estimated
Tue 10:39:00 PM -20.2581 -40.2864 13° North  Level Estimated
Tue 10:40:00 PM -20.2581 -40.2864 13° North  Level Estimated
Tue 10:41:00 PM -20.2581 -40.2864 13° North  Level Estimated
Tue 10:42:00 PM -20.2581 -40.2864 13° North  Level Estimated
Tue 10:43:00 PM -20.2581 -40.2864 13° North  Level Estimated
Tue 10:44:00 PM -20.2581 -40.2864 13° North  Level Estimated

Login

Don't have an account? Register now (free) for customized features, flight alerts, and more!